createdAt,value
2022-08-03T00:03:00.015Z,100.00
2022-08-03T00:06:05.222Z,100.00
2022-08-03T00:09:08.769Z,100.00
2022-08-03T00:12:11.801Z,100.00
2022-08-03T00:15:16.643Z,100.00
2022-08-03T00:18:20.368Z,100.00
2022-08-03T00:21:24.737Z,100.00
2022-08-03T00:24:27.776Z,100.00
2022-08-03T00:27:32.578Z,100.00
2022-08-03T00:30:36.278Z,100.00
2022-08-03T00:33:58.320Z,100.00
2022-08-03T00:37:03.542Z,100.00
2022-08-03T00:40:08.368Z,100.00
2022-08-03T00:43:11.608Z,100.00
2022-08-03T00:46:19.253Z,100.00
2022-08-03T00:49:25.293Z,100.00
2022-08-03T00:52:29.651Z,100.00
2022-08-03T00:55:32.834Z,100.00
2022-08-03T00:58:36.002Z,100.00
2022-08-03T01:01:40.534Z,100.00
2022-08-03T01:04:43.556Z,100.00
2022-08-03T01:08:04.253Z,100.00
2022-08-03T01:11:18.260Z,100.00
2022-08-03T01:14:29.081Z,100.00
2022-08-03T01:17:40.577Z,100.00
2022-08-03T01:20:49.494Z,100.00
2022-08-03T01:24:06.229Z,100.00
2022-08-03T01:27:14.145Z,100.00
2022-08-03T01:30:18.863Z,100.00
2022-08-03T01:33:30.929Z,100.00
2022-08-03T01:36:39.743Z,100.00
2022-08-03T01:39:44.197Z,100.00
2022-08-03T01:42:48.814Z,100.00
2022-08-03T01:45:55.481Z,100.00
2022-08-03T01:48:59.883Z,100.00
2022-08-03T01:52:05.562Z,100.00
2022-08-03T01:55:10.894Z,100.00
2022-08-03T01:58:16.447Z,100.00
2022-08-03T02:01:22.797Z,100.00
2022-08-03T02:04:28.833Z,100.00
2022-08-03T02:07:34.434Z,100.00
2022-08-03T02:10:39.204Z,100.00
2022-08-03T02:13:43.281Z,100.00
2022-08-03T02:16:50.225Z,100.00
2022-08-03T02:19:54.895Z,100.00
2022-08-03T02:22:58.212Z,100.00
2022-08-03T02:26:06.046Z,100.00
2022-08-03T02:29:39.401Z,100.00
2022-08-03T02:32:53.247Z,100.00
2022-08-03T02:35:58.440Z,100.00
2022-08-03T02:39:03.302Z,100.00
2022-08-03T02:42:09.973Z,100.00
2022-08-03T02:45:17.624Z,100.00
2022-08-03T02:48:26.485Z,100.00
2022-08-03T02:51:32.996Z,100.00
2022-08-03T02:54:37.786Z,100.00
2022-08-03T02:57:41.761Z,100.00
2022-08-03T03:00:46.123Z,100.00
2022-08-03T03:03:51.872Z,100.00
2022-08-03T03:06:56.747Z,100.00
2022-08-03T03:10:00.628Z,100.00
2022-08-03T03:13:04.930Z,100.00
2022-08-03T03:16:09.377Z,100.00
2022-08-03T03:19:17.973Z,100.00
2022-08-03T03:22:22.778Z,100.00
2022-08-03T03:25:26.047Z,100.00
2022-08-03T03:28:31.818Z,100.00
2022-08-03T03:31:36.266Z,100.00
2022-08-03T03:34:40.963Z,100.00
2022-08-03T03:37:47.521Z,100.00
2022-08-03T03:40:50.675Z,100.00
2022-08-03T03:43:53.768Z,100.00
2022-08-03T03:46:56.895Z,100.00
2022-08-03T03:50:03.040Z,100.00
2022-08-03T03:53:06.283Z,100.00
2022-08-03T03:56:12.417Z,100.00
2022-08-03T03:59:15.575Z,100.00
2022-08-03T04:02:18.716Z,100.00
2022-08-03T04:05:44.257Z,100.00
2022-08-03T04:09:06.527Z,100.00
2022-08-03T04:12:10.108Z,100.00
2022-08-03T04:15:14.568Z,100.00
2022-08-03T04:18:20.023Z,100.00
2022-08-03T04:21:25.274Z,100.00
2022-08-03T04:24:35.061Z,100.00
2022-08-03T04:27:41.660Z,100.00
2022-08-03T04:30:48.917Z,100.00
2022-08-03T04:33:53.991Z,100.00
2022-08-03T04:37:01.521Z,100.00
2022-08-03T04:40:10.636Z,100.00
2022-08-03T04:43:16.118Z,100.00
2022-08-03T04:46:21.514Z,100.00
2022-08-03T04:49:24.976Z,100.00
2022-08-03T04:52:30.187Z,100.00
2022-08-03T04:55:35.814Z,100.00
2022-08-03T04:58:39.045Z,100.00
2022-08-03T05:01:42.551Z,100.00
2022-08-03T05:04:46.586Z,100.00
2022-08-03T05:07:51.251Z,100.00
2022-08-03T05:10:54.443Z,100.00
2022-08-03T05:13:57.585Z,100.00
2022-08-03T05:17:00.563Z,100.00
2022-08-03T05:20:04.987Z,100.00
2022-08-03T05:23:09.407Z,100.00
2022-08-03T05:26:12.831Z,100.00
2022-08-03T05:29:16.209Z,100.00
2022-08-03T05:32:20.167Z,100.00
2022-08-03T05:36:01.459Z,100.00
2022-08-03T05:38:53.840Z,100.00
2022-08-03T05:41:56.800Z,100.00
2022-08-03T05:44:59.792Z,100.00
2022-08-03T05:48:02.772Z,100.00
2022-08-03T05:51:07.585Z,100.00
2022-08-03T05:54:11.954Z,100.00
2022-08-03T05:57:14.967Z,100.00
2022-08-03T06:00:19.182Z,100.00
2022-08-03T06:03:22.218Z,100.00
2022-08-03T06:06:28.290Z,100.00
2022-08-03T06:10:34.919Z,100.00
2022-08-03T06:12:59.236Z,100.00
2022-08-03T06:16:02.381Z,100.00
2022-08-03T06:19:05.547Z,100.00
2022-08-03T06:22:08.584Z,100.00
2022-08-03T06:25:13.098Z,100.00
2022-08-03T06:28:51.792Z,100.00
2022-08-03T06:31:41.276Z,100.00
2022-08-03T06:34:44.300Z,100.00
2022-08-03T06:37:49.692Z,100.00
2022-08-03T06:40:54.325Z,94.27
2022-08-03T06:44:03.507Z,95.62
2022-08-03T06:47:07.536Z,89.97
2022-08-03T06:50:12.688Z,94.33
2022-08-03T06:53:21.186Z,94.47
2022-08-03T06:56:26.089Z,92.03
2022-08-03T07:00:09.297Z,92.33
2022-08-03T07:02:57.666Z,83.19
2022-08-03T07:06:01.891Z,79.28
2022-08-03T07:09:07.085Z,87.43
2022-08-03T07:12:11.468Z,79.46
2022-08-03T07:15:20.595Z,68.85
2022-08-03T07:18:41.736Z,70.46
2022-08-03T07:21:45.874Z,68.85
2022-08-03T07:24:48.955Z,73.58
2022-08-03T07:27:53.728Z,65.20
2022-08-03T07:30:59.459Z,64.29
2022-08-03T07:34:02.641Z,59.97
2022-08-03T07:37:05.640Z,62.49
2022-08-03T07:40:10.485Z,58.82
2022-08-03T07:43:14.842Z,57.31
2022-08-03T07:46:17.886Z,54.22
2022-08-03T07:49:20.940Z,61.79
2022-08-03T07:52:41.502Z,53.17
2022-08-03T07:55:44.568Z,55.82
2022-08-03T07:58:49.100Z,57.36
2022-08-03T08:01:53.655Z,52.40
2022-08-03T08:04:56.743Z,49.39
2022-08-03T08:07:59.762Z,48.36
2022-08-03T08:11:02.791Z,50.30
2022-08-03T08:14:08.034Z,47.33
2022-08-03T08:17:11.115Z,45.32
2022-08-03T08:20:23.802Z,45.76
2022-08-03T08:23:41.643Z,45.31
2022-08-03T08:26:46.765Z,44.96
2022-08-03T08:29:55.193Z,44.04
2022-08-03T08:33:00.511Z,42.53
2022-08-03T08:36:03.874Z,43.81
2022-08-03T08:39:06.847Z,41.99
2022-08-03T08:42:11.335Z,40.53
2022-08-03T08:45:16.541Z,39.97
2022-08-03T08:48:24.455Z,40.38
2022-08-03T08:51:43.818Z,40.79
2022-08-03T08:55:00.661Z,38.66
2022-08-03T08:58:07.353Z,38.33
2022-08-03T09:01:11.772Z,38.49
2022-08-03T09:04:14.948Z,38.62
2022-08-03T09:07:20.323Z,37.83
2022-08-03T09:10:32.878Z,35.32
2022-08-03T09:13:36.521Z,37.28
2022-08-03T09:17:00.219Z,38.71
2022-08-03T09:20:09.544Z,37.81
2022-08-03T09:23:59.236Z,36.95
2022-08-03T09:26:38.208Z,38.00
2022-08-03T09:29:42.926Z,37.43
2022-08-03T09:32:48.854Z,35.44
2022-08-03T09:35:57.896Z,35.88
2022-08-03T09:39:05.801Z,36.40
2022-08-03T09:42:11.188Z,36.41
2022-08-03T09:45:27.801Z,36.38
2022-08-03T09:48:34.905Z,35.34
2022-08-03T09:52:33.873Z,34.93
2022-08-03T09:55:02.298Z,35.97
2022-08-03T09:58:09.387Z,35.25
2022-08-03T10:01:24.008Z,33.69
2022-08-03T10:04:29.571Z,34.59
2022-08-03T10:07:46.171Z,34.10
2022-08-03T10:10:53.899Z,33.55
2022-08-03T10:14:01.282Z,33.62
2022-08-03T10:17:05.290Z,34.35
2022-08-03T10:20:11.783Z,34.69
2022-08-03T10:23:17.911Z,34.23
2022-08-03T10:26:25.042Z,34.51
2022-08-03T10:29:30.767Z,32.42
2022-08-03T10:32:40.199Z,33.40
2022-08-03T10:35:49.159Z,33.05
2022-08-03T10:38:53.688Z,33.58
2022-08-03T10:42:02.388Z,32.55
2022-08-03T10:45:10.823Z,32.07
2022-08-03T10:48:14.559Z,30.47
2022-08-03T10:51:20.320Z,33.36
2022-08-03T10:55:03.279Z,32.23
2022-08-03T10:58:11.013Z,30.88
2022-08-03T11:01:15.112Z,33.59
2022-08-03T11:04:21.485Z,30.56
2022-08-03T11:07:26.700Z,31.20
2022-08-03T11:10:31.982Z,30.76
2022-08-03T11:13:35.075Z,30.42
2022-08-03T11:16:41.809Z,29.72
2022-08-03T11:19:57.596Z,30.00
2022-08-03T11:23:02.983Z,29.53
2022-08-03T11:26:17.299Z,29.20
2022-08-03T11:29:30.127Z,29.23
2022-08-03T11:32:58.702Z,28.85
2022-08-03T11:36:03.249Z,30.44
2022-08-03T11:39:17.280Z,28.04
2022-08-03T11:42:44.012Z,30.52
2022-08-03T11:45:59.635Z,28.65
2022-08-03T11:49:10.960Z,28.29
2022-08-03T11:52:14.528Z,28.86
2022-08-03T11:55:22.039Z,28.74
2022-08-03T11:59:10.748Z,28.31
2022-08-03T12:01:48.572Z,29.26
2022-08-03T12:04:52.248Z,29.02
2022-08-03T12:08:04.422Z,27.68
2022-08-03T12:11:12.427Z,27.43
2022-08-03T12:14:50.502Z,28.30
2022-08-03T12:17:42.162Z,28.88
2022-08-03T12:20:46.352Z,27.78
2022-08-03T12:23:49.549Z,26.78
2022-08-03T12:26:59.023Z,27.58
2022-08-03T12:30:04.930Z,27.38
2022-08-03T12:33:24.047Z,27.53
2022-08-03T12:36:29.352Z,28.53
2022-08-03T12:39:33.697Z,28.19
2022-08-03T12:42:40.151Z,27.92
2022-08-03T12:45:43.285Z,28.21
2022-08-03T12:49:09.520Z,27.52
2022-08-03T12:52:12.688Z,27.29
2022-08-03T12:55:21.588Z,27.20
2022-08-03T12:58:34.802Z,28.63
2022-08-03T13:01:38.689Z,25.71
2022-08-03T13:04:59.376Z,27.15
2022-08-03T13:08:02.363Z,27.11
2022-08-03T13:11:23.739Z,27.66
2022-08-03T13:14:50.822Z,27.81
2022-08-03T13:17:54.426Z,26.92
2022-08-03T13:20:57.937Z,26.88
2022-08-03T13:24:01.216Z,26.50
2022-08-03T13:27:59.450Z,26.08
2022-08-03T13:30:31.223Z,26.91
2022-08-03T13:33:34.683Z,27.45
2022-08-03T13:37:06.398Z,26.23
2022-08-03T13:40:02.486Z,26.23
2022-08-03T13:43:06.360Z,24.84
2022-08-03T13:46:10.915Z,26.21
2022-08-03T13:49:14.052Z,26.84
2022-08-03T13:52:17.468Z,25.55
2022-08-03T13:55:20.776Z,26.27
2022-08-03T13:58:24.120Z,26.32
2022-08-03T14:01:54.259Z,26.45
2022-08-03T14:04:51.754Z,26.05
2022-08-03T14:07:56.861Z,26.44
2022-08-03T14:11:07.518Z,25.78
2022-08-03T14:14:10.909Z,26.02
2022-08-03T14:17:16.443Z,25.52
2022-08-03T14:20:36.844Z,25.71
2022-08-03T14:23:42.071Z,25.10
2022-08-03T14:26:45.043Z,25.01
2022-08-03T14:29:48.063Z,24.73
2022-08-03T14:32:52.409Z,23.55
2022-08-03T14:35:55.906Z,24.12
2022-08-03T14:39:01.373Z,24.78
2022-08-03T14:42:05.921Z,23.65
2022-08-03T14:45:19.895Z,24.26
2022-08-03T14:50:30.827Z,24.49
2022-08-03T14:51:51.359Z,24.69
2022-08-03T14:54:57.202Z,24.29
2022-08-03T14:58:02.916Z,24.42
2022-08-03T15:02:05.481Z,24.11
2022-08-03T15:04:31.716Z,23.89
2022-08-03T15:07:34.731Z,24.60
2022-08-03T15:10:44.369Z,24.06
2022-08-03T15:13:48.670Z,25.33
2022-08-03T15:16:51.700Z,24.99
2022-08-03T15:20:03.240Z,24.35
2022-08-03T15:23:20.390Z,24.13
2022-08-03T15:26:30.723Z,25.82
2022-08-03T15:30:05.573Z,24.04
2022-08-03T15:33:00.186Z,24.78
2022-08-03T15:36:05.438Z,25.72
2022-08-03T15:39:08.561Z,25.86
2022-08-03T15:42:11.759Z,26.22
2022-08-03T15:45:14.755Z,25.93
2022-08-03T15:48:26.499Z,25.44
2022-08-03T15:51:31.000Z,25.65
2022-08-03T15:54:33.986Z,25.27
2022-08-03T15:59:04.635Z,24.64
2022-08-03T16:01:02.818Z,25.96
2022-08-03T16:04:06.214Z,28.60
2022-08-03T16:07:12.564Z,27.01
2022-08-03T16:10:17.951Z,25.54
2022-08-03T16:13:20.958Z,25.54
2022-08-03T16:16:24.287Z,27.04
2022-08-03T16:19:28.089Z,25.92
2022-08-03T16:22:32.496Z,26.43
2022-08-03T16:25:36.106Z,26.38
2022-08-03T16:28:39.343Z,28.27
2022-08-03T16:31:50.908Z,29.19
2022-08-03T16:34:54.642Z,27.80
2022-08-03T16:37:59.852Z,30.58
2022-08-03T16:41:05.056Z,31.30
2022-08-03T16:44:10.034Z,31.17
2022-08-03T16:47:21.771Z,36.01
2022-08-03T16:50:25.942Z,34.59
2022-08-03T16:53:33.768Z,29.85
2022-08-03T16:56:53.377Z,34.03
2022-08-03T16:59:56.580Z,35.37
2022-08-03T17:03:04.117Z,37.20
2022-08-03T17:06:09.296Z,38.20
2022-08-03T17:09:18.213Z,34.53
2022-08-03T17:12:21.766Z,36.51
2022-08-03T17:15:38.089Z,34.88
2022-08-03T17:18:54.038Z,35.04
2022-08-03T17:22:04.521Z,41.09
2022-08-03T17:25:10.776Z,41.68
2022-08-03T17:28:51.103Z,42.95
2022-08-03T17:31:54.308Z,47.30
2022-08-03T17:34:57.537Z,46.83
2022-08-03T17:38:03.793Z,48.49
2022-08-03T17:41:10.549Z,46.94
2022-08-03T17:44:29.531Z,48.13
2022-08-03T17:47:42.073Z,48.73
2022-08-03T17:50:54.213Z,52.00
2022-08-03T17:54:06.187Z,54.00
2022-08-03T17:57:30.380Z,55.49
2022-08-03T18:01:59.275Z,52.44
2022-08-03T18:04:43.600Z,55.75
2022-08-03T18:08:01.716Z,53.60
2022-08-03T18:11:14.660Z,57.51
2022-08-03T18:14:33.174Z,55.48
2022-08-03T18:17:55.669Z,56.32
2022-08-03T18:21:09.392Z,56.61
2022-08-03T18:24:20.984Z,54.23
2022-08-03T18:27:42.873Z,58.92
2022-08-03T18:30:53.583Z,57.69
2022-08-03T18:34:16.797Z,56.43
2022-08-03T18:37:26.062Z,61.23
2022-08-03T18:40:30.043Z,63.27
2022-08-03T18:43:46.629Z,62.46
2022-08-03T18:47:17.717Z,67.50
2022-08-03T18:50:28.025Z,65.01
2022-08-03T18:54:02.451Z,67.66
2022-08-03T18:57:09.134Z,71.67
2022-08-03T19:00:15.893Z,70.24
2022-08-03T19:03:42.779Z,75.44
2022-08-03T19:06:52.336Z,77.76
2022-08-03T19:10:03.491Z,76.34
2022-08-03T19:13:14.158Z,77.95
2022-08-03T19:16:24.456Z,79.27
2022-08-03T19:19:43.322Z,82.21
2022-08-03T19:22:48.874Z,84.39
2022-08-03T19:25:52.343Z,86.24
2022-08-03T19:28:58.695Z,86.60
2022-08-03T19:32:03.011Z,87.21
2022-08-03T19:35:10.103Z,92.12
2022-08-03T19:38:27.466Z,90.58
2022-08-03T19:41:42.019Z,89.99
2022-08-03T19:44:52.830Z,92.15
2022-08-03T19:48:09.720Z,94.00
2022-08-03T19:51:14.608Z,97.84
2022-08-03T19:54:18.589Z,100.00
2022-08-03T19:57:34.957Z,100.00
2022-08-03T20:00:40.844Z,100.00
2022-08-03T20:03:53.260Z,100.00
2022-08-03T20:06:59.200Z,100.00
2022-08-03T20:10:05.908Z,100.00
2022-08-03T20:13:09.585Z,100.00
2022-08-03T20:16:12.927Z,100.00
2022-08-03T20:19:19.210Z,100.00
2022-08-03T20:22:31.198Z,100.00
2022-08-03T20:25:55.706Z,100.00
2022-08-03T20:29:09.249Z,100.00
2022-08-03T20:32:13.912Z,100.00
2022-08-03T20:35:17.218Z,100.00
2022-08-03T20:38:27.271Z,100.00
2022-08-03T20:41:30.626Z,100.00
2022-08-03T20:44:34.795Z,100.00
2022-08-03T20:47:50.979Z,100.00
2022-08-03T20:50:55.378Z,100.00
2022-08-03T20:54:03.038Z,100.00
2022-08-03T20:57:10.168Z,100.00
2022-08-03T21:00:17.611Z,100.00
2022-08-03T21:03:20.662Z,100.00
2022-08-03T21:06:27.743Z,100.00
2022-08-03T21:09:44.121Z,100.00
2022-08-03T21:13:13.011Z,100.00
2022-08-03T21:16:19.932Z,100.00
2022-08-03T21:19:24.783Z,100.00
2022-08-03T21:22:32.962Z,100.00
2022-08-03T21:25:40.301Z,100.00
2022-08-03T21:28:43.700Z,100.00
2022-08-03T21:31:47.598Z,100.00
2022-08-03T21:34:52.576Z,100.00
2022-08-03T21:38:10.242Z,100.00
2022-08-03T21:41:14.941Z,100.00
2022-08-03T21:44:25.282Z,100.00
2022-08-03T21:47:37.569Z,100.00
2022-08-03T21:50:43.259Z,100.00
2022-08-03T21:54:02.458Z,100.00
2022-08-03T21:57:19.917Z,100.00
2022-08-03T22:00:24.139Z,100.00
2022-08-03T22:03:27.529Z,100.00
2022-08-03T22:06:31.402Z,100.00
2022-08-03T22:09:35.331Z,100.00
2022-08-03T22:12:40.060Z,100.00
2022-08-03T22:15:43.224Z,100.00
2022-08-03T22:18:47.474Z,100.00
2022-08-03T22:21:51.412Z,100.00
2022-08-03T22:24:59.948Z,100.00
2022-08-03T22:28:07.816Z,100.00
2022-08-03T22:31:57.674Z,100.00
2022-08-03T22:34:35.438Z,100.00
2022-08-03T22:37:40.991Z,100.00
2022-08-03T22:40:45.379Z,100.00
2022-08-03T22:43:50.469Z,100.00
2022-08-03T22:46:53.632Z,100.00
2022-08-03T22:50:33.491Z,100.00
2022-08-03T22:53:23.194Z,100.00
2022-08-03T22:56:26.499Z,100.00
2022-08-03T22:59:41.127Z,100.00
2022-08-03T23:02:48.403Z,100.00
2022-08-03T23:06:01.276Z,100.00
2022-08-03T23:09:08.805Z,100.00
2022-08-03T23:12:16.568Z,100.00
2022-08-03T23:15:21.712Z,100.00
2022-08-03T23:18:26.567Z,100.00
2022-08-03T23:21:52.955Z,100.00
2022-08-03T23:24:54.333Z,100.00
2022-08-03T23:28:05.307Z,100.00
2022-08-03T23:31:10.861Z,100.00
2022-08-03T23:34:33.842Z,100.00
2022-08-03T23:38:04.333Z,100.00
2022-08-03T23:41:05.310Z,100.00
2022-08-03T23:44:11.680Z,100.00
2022-08-03T23:47:16.450Z,100.00
2022-08-03T23:50:20.184Z,100.00
2022-08-03T23:53:31.229Z,100.00
2022-08-03T23:56:51.763Z,100.00
